createdAt,value
2023-01-10T00:00:03.121Z,4.65
2023-01-10T00:15:01.597Z,4.65
2023-01-10T00:30:01.999Z,4.65
2023-01-10T00:45:02.077Z,4.65
2023-01-10T01:00:01.364Z,4.65
2023-01-10T01:15:02.127Z,4.65
2023-01-10T01:30:01.593Z,4.65
2023-01-10T01:45:02.063Z,4.65
2023-01-10T02:00:02.510Z,4.65
2023-01-10T02:15:01.453Z,4.65
2023-01-10T02:30:01.721Z,4.65
2023-01-10T02:45:01.939Z,4.65
2023-01-10T03:00:02.392Z,4.65
2023-01-10T03:15:01.471Z,4.65
2023-01-10T03:30:01.749Z,4.65
2023-01-10T03:45:01.982Z,4.65
2023-01-10T04:00:02.338Z,4.65
2023-01-10T04:15:01.621Z,4.65
2023-01-10T04:30:02.417Z,4.65
2023-01-10T04:45:02.195Z,4.65
2023-01-10T05:00:01.342Z,4.65
2023-01-10T05:15:01.403Z,4.65
2023-01-10T05:30:01.659Z,4.65
2023-01-10T05:45:01.954Z,4.65
2023-01-10T06:00:04.907Z,4.65
2023-01-10T06:15:01.425Z,4.65
2023-01-10T06:30:01.662Z,4.65
2023-01-10T06:45:01.914Z,4.65
2023-01-10T07:00:02.198Z,4.65
2023-01-10T07:15:02.373Z,4.65
2023-01-10T07:30:02.864Z,4.65
2023-01-10T07:45:01.397Z,4.65
2023-01-10T08:00:01.770Z,4.65
2023-01-10T08:15:02.229Z,4.65
2023-01-10T08:30:02.620Z,4.65
2023-01-10T08:45:03.083Z,4.65
2023-01-10T09:00:01.549Z,4.65
2023-01-10T09:15:01.954Z,4.65
2023-01-10T09:30:02.280Z,4.65
2023-01-10T09:45:01.437Z,4.65
2023-01-10T10:00:01.704Z,4.65
2023-01-10T10:15:02.821Z,4.65
2023-01-10T10:30:02.372Z,4.65
2023-01-10T10:45:01.837Z,4.65
2023-01-10T11:00:01.823Z,4.65
2023-01-10T11:15:02.339Z,4.65
2023-01-10T11:30:02.891Z,4.65
2023-01-10T11:45:01.330Z,4.65
2023-01-10T12:00:01.609Z,4.65
2023-01-10T12:15:02.253Z,4.65
2023-01-10T12:30:01.646Z,4.65
2023-01-10T12:45:01.660Z,4.65
2023-01-10T13:00:02.668Z,4.65
2023-01-10T13:15:01.944Z,4.65
2023-01-10T13:30:02.456Z,4.65
2023-01-10T13:45:02.549Z,4.65
2023-01-10T14:00:02.434Z,16.4
2023-01-10T14:15:01.731Z,10.13
2023-01-10T14:30:02.140Z,18.82
2023-01-10T14:45:02.879Z,8.79
2023-01-10T15:00:02.004Z,4.11
2023-01-10T15:15:02.459Z,3.74
2023-01-10T15:30:03.036Z,1.67
2023-01-10T15:45:02.058Z,1.55
2023-01-10T16:00:01.663Z,1.39
2023-01-10T16:15:02.196Z,1.39
2023-01-10T16:30:02.418Z,1.39
2023-01-10T16:45:02.216Z,1.39
2023-01-10T17:00:02.537Z,1.39
2023-01-10T17:15:03.609Z,1.39
2023-01-10T17:30:01.445Z,1.39
2023-01-10T17:45:01.839Z,1.39
2023-01-10T18:00:02.614Z,1.39
2023-01-10T18:15:03.226Z,1.39
2023-01-10T18:30:03.585Z,1.39
2023-01-10T18:45:01.932Z,1.39
2023-01-10T19:00:02.319Z,1.39
2023-01-10T19:15:02.090Z,-1.3
2023-01-10T19:30:01.748Z,-1.3
2023-01-10T19:45:02.253Z,-1.3
2023-01-10T20:00:02.810Z,-1.3
2023-01-10T20:15:01.865Z,-1.3
2023-01-10T20:30:02.025Z,-1.3
2023-01-10T20:45:02.253Z,-1.3
2023-01-10T21:00:01.539Z,-1.3
2023-01-10T21:15:01.554Z,-1.3
2023-01-10T21:30:01.882Z,-1.3
2023-01-10T21:45:02.193Z,-1.3
2023-01-10T22:00:02.788Z,-1.3
2023-01-10T22:15:01.630Z,-1.3
2023-01-10T22:30:01.828Z,-1.3
2023-01-10T22:45:02.048Z,-1.3
2023-01-10T23:00:02.642Z,-1.3
2023-01-10T23:15:01.797Z,-1.3
2023-01-10T23:30:02.080Z,-1.3
2023-01-10T23:45:02.272Z,-1.3
